Time;durP1;ratioP1;P1;durP2;ratioP2;P2;SDS_P1;SDS_P2;PMS_P1;PMS_P2;Temp;Humidity;BMP_temperature;BMP_pressure;BME280_temperature;BME280_humidity;BME280_pressure;Samples;Min_cycle;Max_cycle;Signal;HPM_P1;HPM_P2
2021/08/24 00:00:44;;;;;;;3.60;3.40;;;20.20;63.50;;;;;;5052405;28;20037;-85
2021/08/24 00:03:10;;;;;;;3.53;3.33;;;20.20;63.50;;;;;;5039619;28;20021;-84
2021/08/24 00:05:36;;;;;;;3.28;3.08;;;20.20;63.50;;;;;;5058573;28;20385;-85
2021/08/24 00:08:04;;;;;;;3.80;3.60;;;20.20;63.50;;;;;;5041315;28;20080;-86
2021/08/24 00:10:35;;;;;;;7.95;3.40;;;20.20;63.50;;;;;;5039889;28;20454;-85
2021/08/24 00:13:02;;;;;;;3.20;3.03;;;20.10;63.60;;;;;;5053858;28;20047;-84
2021/08/24 00:15:28;;;;;;;3.38;3.25;;;20.10;63.70;;;;;;5051254;28;20405;-84
2021/08/24 00:17:54;;;;;;;3.05;2.85;;;20.10;63.80;;;;;;5059471;28;20037;-84
2021/08/24 00:20:22;;;;;;;3.80;3.50;;;20.00;63.80;;;;;;5057224;28;20033;-84
2021/08/24 00:22:48;;;;;;;3.72;3.53;;;20.00;64.00;;;;;;5056113;28;20033;-84
2021/08/24 00:25:14;;;;;;;3.42;3.25;;;20.00;64.10;;;;;;5057209;28;20470;-85
2021/08/24 00:27:40;;;;;;;3.38;3.28;;;19.90;64.20;;;;;;5052480;28;20032;-84
2021/08/24 00:30:08;;;;;;;3.25;3.15;;;19.90;64.30;;;;;;5056782;28;20043;-83
2021/08/24 00:32:34;;;;;;;3.38;3.17;;;19.80;64.30;;;;;;5056510;28;20040;-85
2021/08/24 00:35:00;;;;;;;3.47;3.28;;;19.80;64.50;;;;;;5056905;28;20553;-84
2021/08/24 00:37:26;;;;;;;3.45;3.30;;;19.80;64.50;;;;;;5056961;28;20028;-84
2021/08/24 00:39:52;;;;;;;3.35;3.15;;;19.70;64.60;;;;;;5053698;28;20391;-84
2021/08/24 00:42:18;;;;;;;3.67;3.35;;;19.70;64.80;;;;;;5054260;28;20025;-84
2021/08/24 00:44:45;;;;;;;3.05;2.95;;;19.70;64.90;;;;;;5057416;28;20025;-85
2021/08/24 00:47:12;;;;;;;4.05;3.85;;;19.60;65.00;;;;;;5038694;28;20033;-84
2021/08/24 00:49:38;;;;;;;3.22;3.03;;;19.60;65.10;;;;;;5038685;28;20044;-84
2021/08/24 00:52:12;;;;;;;3.45;3.25;;;19.50;65.20;;;;;;5037405;28;20033;-84
2021/08/24 00:54:38;;;;;;;3.42;3.22;;;19.50;65.30;;;;;;5038143;28;20039;-86
2021/08/24 00:57:08;;;;;;;3.15;2.97;;;19.50;65.30;;;;;;5056437;28;20033;-85
2021/08/24 00:59:34;;;;;;;2.83;2.72;;;19.40;65.30;;;;;;5038142;28;20470;-84
2021/08/24 01:02:00;;;;;;;3.53;3.33;;;19.50;66.20;;;;;;5055996;28;20037;-85
2021/08/24 01:04:26;;;;;;;3.00;2.90;;;19.40;65.60;;;;;;5054500;28;20482;-85
2021/08/24 01:07:17;;;;;;;2.67;2.58;;;19.40;65.70;;;;;;5053242;28;20029;-85
2021/08/24 01:10:06;;;;;;;2.78;2.67;;;19.30;65.80;;;;;;5038713;28;20033;-85
2021/08/24 01:12:51;;;;;;;2.65;2.55;;;19.30;65.70;;;;;;5021149;28;20120;-84
2021/08/24 01:15:28;;;;;;;2.50;2.40;;;19.30;65.70;;;;;;5065868;28;20031;-84
2021/08/24 01:18:08;;;;;;;2.88;2.78;;;19.30;65.80;;;;;;5072224;28;20024;-85
2021/08/24 01:21:12;;;;;;;3.20;3.05;;;19.30;65.80;;;;;;5056590;28;20040;-84
2021/08/24 01:23:50;;;;;;;2.42;2.33;;;19.30;65.70;;;;;;5057310;28;20466;-84
2021/08/24 01:26:22;;;;;;;2.80;2.70;;;19.30;65.60;;;;;;5037897;28;20037;-84
2021/08/24 01:29:13;;;;;;;3.25;2.95;;;19.30;65.50;;;;;;5038426;28;20478;-84
2021/08/24 01:31:58;;;;;;;2.63;2.53;;;19.30;65.50;;;;;;5053832;28;20048;-85
2021/08/24 01:34:52;;;;;;;3.28;3.00;;;19.30;65.50;;;;;;5054439;28;20512;-84
2021/08/24 01:37:38;;;;;;;3.17;2.97;;;19.30;65.60;;;;;;5054776;28;20049;-86
2021/08/24 01:40:10;;;;;;;2.70;2.60;;;19.30;65.60;;;;;;5055588;28;20032;-86
2021/08/24 01:42:36;;;;;;;2.50;2.40;;;19.20;65.60;;;;;;5034847;28;20032;-85
2021/08/24 01:45:17;;;;;;;2.65;2.55;;;19.20;65.70;;;;;;5055757;28;20037;-80
2021/08/24 01:47:47;;;;;;;3.40;2.95;;;19.20;65.80;;;;;;5054273;28;20035;-85
2021/08/24 01:50:13;;;;;;;2.90;2.70;;;19.10;65.70;;;;;;5055589;28;20029;-83
2021/08/24 01:52:42;;;;;;;2.75;2.63;;;19.10;65.90;;;;;;5055799;28;20021;-84
2021/08/24 01:55:27;;;;;;;3.95;3.05;;;19.10;66.10;;;;;;5038028;28;20024;-83
2021/08/24 01:57:55;;;;;;;2.78;2.67;;;19.00;66.00;;;;;;5036195;28;20029;-84
2021/08/24 02:00:21;;;;;;;2.50;2.40;;;19.00;66.20;;;;;;5047346;28;20369;-87
2021/08/24 02:02:55;;;;;;;2.83;2.72;;;18.90;66.20;;;;;;5044851;28;20021;-85
2021/08/24 02:05:42;;;;;;;3.05;2.95;;;18.90;66.30;;;;;;5045399;28;20025;-84
2021/08/24 02:08:11;;;;;;;3.17;3.00;;;18.90;66.30;;;;;;5027455;28;20033;-86
2021/08/24 02:10:38;;;;;;;2.80;2.70;;;18.90;66.30;;;;;;5025455;28;20021;-84
2021/08/24 02:13:04;;;;;;;3.15;3.03;;;18.80;66.30;;;;;;5046431;28;20036;-85
2021/08/24 02:15:37;;;;;;;3.42;3.30;;;18.90;66.40;;;;;;5029996;28;20033;-85
2021/08/24 02:18:03;;;;;;;3.65;3.45;;;18.80;66.40;;;;;;5059081;28;20026;-86
2021/08/24 02:20:43;;;;;;;4.13;3.75;;;18.80;66.30;;;;;;5043569;28;20025;-85
2021/08/24 02:23:17;;;;;;;2.63;2.53;;;18.80;66.40;;;;;;5034845;28;20033;-84
2021/08/24 02:25:44;;;;;;;2.97;2.78;;;18.80;66.50;;;;;;5034366;28;20036;-85
2021/08/24 02:28:44;;;;;;;2.53;2.42;;;18.80;66.60;;;;;;5034310;28;20040;-86
2021/08/24 02:31:24;;;;;;;4.15;3.72;;;18.70;66.60;;;;;;4977634;28;20037;-84
2021/08/24 02:33:58;;;;;;;3.50;3.30;;;18.70;66.70;;;;;;4986558;28;20483;-85
2021/08/24 02:36:24;;;;;;;3.35;3.15;;;18.70;66.70;;;;;;4977043;28;20033;-85
2021/08/24 02:39:18;;;;;;;3.65;3.35;;;18.60;66.70;;;;;;5014971;28;20415;-84
2021/08/24 02:41:49;;;;;;;3.38;3.17;;;18.60;66.90;;;;;;5000176;28;20402;-84
2021/08/24 02:44:22;;;;;;;3.60;3.33;;;18.60;66.90;;;;;;4988635;28;20133;-85
2021/08/24 02:46:51;;;;;;;3.28;3.08;;;18.50;66.90;;;;;;4986347;28;20053;-84
2021/08/24 02:49:27;;;;;;;3.22;3.03;;;18.50;66.90;;;;;;4994788;28;20049;-83
2021/08/24 02:51:54;;;;;;;3.97;3.78;;;18.50;67.00;;;;;;4990395;28;20026;-86
2021/08/24 02:54:28;;;;;;;3.63;3.42;;;18.50;67.10;;;;;;5008233;28;20380;-85
2021/08/24 02:56:55;;;;;;;3.38;3.22;;;18.50;67.20;;;;;;5014692;28;20491;-85
2021/08/24 02:59:22;;;;;;;3.00;2.90;;;18.40;67.30;;;;;;5003628;28;20029;-84
2021/08/24 03:01:48;;;;;;;3.35;3.15;;;18.40;67.30;;;;;;5020379;28;20109;-84
2021/08/24 03:04:14;;;;;;;3.58;3.38;;;18.40;67.40;;;;;;5004035;28;20042;-84
2021/08/24 03:06:58;;;;;;;3.42;3.30;;;18.40;67.50;;;;;;5030775;28;20033;-84
2021/08/24 03:09:25;;;;;;;3.70;3.50;;;18.30;67.60;;;;;;5049690;28;20068;-85
2021/08/24 03:11:52;;;;;;;3.33;3.15;;;18.30;67.70;;;;;;5054964;28;20044;-85
2021/08/24 03:14:21;;;;;;;3.65;3.45;;;18.20;67.80;;;;;;5053427;28;20025;-85
2021/08/24 03:16:53;;;;;;;3.35;3.17;;;18.20;67.90;;;;;;5052639;28;20036;-85
2021/08/24 03:19:21;;;;;;;3.15;3.05;;;18.20;67.90;;;;;;5037316;28;20021;-85
2021/08/24 03:21:47;;;;;;;3.35;3.25;;;18.20;67.90;;;;;;5050799;28;20029;-85
2021/08/24 03:24:14;;;;;;;3.42;3.28;;;18.20;68.00;;;;;;5035061;28;20041;-86
2021/08/24 03:26:41;;;;;;;3.17;3.08;;;18.10;68.10;;;;;;5071611;28;20025;-85
2021/08/24 03:29:13;;;;;;;3.58;3.38;;;18.10;68.30;;;;;;5040526;28;20402;-84
2021/08/24 03:31:39;;;;;;;2.70;2.60;;;18.00;68.30;;;;;;5054102;28;20029;-84
2021/08/24 03:34:06;;;;;;;3.05;2.95;;;18.10;68.40;;;;;;5064403;28;20032;-84
2021/08/24 03:36:32;;;;;;;2.95;2.80;;;18.10;68.50;;;;;;5032890;28;20026;-84
2021/08/24 03:38:58;;;;;;;2.97;2.78;;;18.00;68.50;;;;;;5056143;28;20029;-84
2021/08/24 03:41:24;;;;;;;3.13;2.92;;;18.00;68.50;;;;;;5054282;28;20044;-88
2021/08/24 03:43:50;;;;;;;3.33;3.13;;;18.00;68.60;;;;;;5054438;28;20029;-85
2021/08/24 03:46:16;;;;;;;2.90;2.78;;;17.90;68.60;;;;;;5053723;28;20052;-84
2021/08/24 03:48:42;;;;;;;3.05;2.88;;;17.90;68.70;;;;;;5051571;28;20029;-84
2021/08/24 03:51:08;;;;;;;2.83;2.72;;;17.90;68.60;;;;;;5056669;28;20393;-84
2021/08/24 03:53:35;;;;;;;3.28;3.08;;;17.90;68.80;;;;;;5057173;28;20036;-84
2021/08/24 03:56:01;;;;;;;2.67;2.58;;;17.90;68.80;;;;;;5040079;28;20044;-85
2021/08/24 03:58:27;;;;;;;2.88;2.78;;;17.90;68.80;;;;;;5057694;28;20505;-85
2021/08/24 04:00:53;;;;;;;3.08;2.97;;;17.90;68.90;;;;;;5055412;28;20269;-84
2021/08/24 04:03:19;;;;;;;3.63;3.33;;;17.90;69.00;;;;;;5053893;28;20033;-85
2021/08/24 04:05:45;;;;;;;3.17;2.97;;;17.80;69.00;;;;;;5059516;28;20033;-85
2021/08/24 04:08:11;;;;;;;3.13;2.92;;;17.80;69.10;;;;;;5054569;28;20028;-84
2021/08/24 04:10:37;;;;;;;2.80;2.70;;;17.80;69.30;;;;;;5057378;28;20033;-85
2021/08/24 04:13:04;;;;;;;3.13;2.90;;;17.80;69.30;;;;;;5055886;28;20039;-85
2021/08/24 04:15:30;;;;;;;2.70;2.60;;;17.80;69.20;;;;;;5052628;28;20036;-85
2021/08/24 04:17:56;;;;;;;3.45;3.20;;;17.70;69.10;;;;;;5058200;28;20035;-84
2021/08/24 04:20:22;;;;;;;2.70;2.60;;;17.80;69.20;;;;;;5057270;28;20034;-84
2021/08/24 04:22:48;;;;;;;2.65;2.55;;;17.80;69.20;;;;;;5056760;28;20025;-84
2021/08/24 04:25:16;;;;;;;3.05;2.85;;;17.80;69.10;;;;;;5056159;28;20047;-85
2021/08/24 04:27:42;;;;;;;3.03;2.88;;;17.80;69.20;;;;;;5053920;28;20413;-84
2021/08/24 04:30:09;;;;;;;2.78;2.67;;;17.70;69.20;;;;;;5055328;28;20037;-83
2021/08/24 04:32:36;;;;;;;2.40;2.30;;;17.70;69.30;;;;;;5072120;28;20382;-84
2021/08/24 04:35:03;;;;;;;2.35;2.25;;;17.70;69.20;;;;;;5055475;28;20049;-84
2021/08/24 04:37:29;;;;;;;2.72;2.53;;;17.80;69.20;;;;;;5038954;28;20040;-84
2021/08/24 04:39:55;;;;;;;2.70;2.50;;;17.80;69.20;;;;;;5039250;28;20033;-84
2021/08/24 04:42:21;;;;;;;2.92;2.60;;;17.70;69.10;;;;;;5019920;28;20033;-84
2021/08/24 04:44:48;;;;;;;2.58;2.47;;;17.70;69.10;;;;;;5059058;28;20386;-84
2021/08/24 04:47:14;;;;;;;2.25;2.15;;;17.80;69.00;;;;;;5053581;28;20033;-84
2021/08/24 04:49:40;;;;;;;3.20;3.00;;;17.80;69.00;;;;;;5056584;28;20418;-85
2021/08/24 04:52:06;;;;;;;2.45;2.35;;;17.80;69.00;;;;;;5056505;28;20040;-85
2021/08/24 04:54:35;;;;;;;2.75;2.53;;;17.80;68.90;;;;;;5035243;28;20387;-84
2021/08/24 04:57:02;;;;;;;3.50;3.30;;;17.80;68.90;;;;;;5065769;28;20043;-85
2021/08/24 04:59:28;;;;;;;2.45;2.35;;;17.80;69.00;;;;;;5055124;28;20029;-84
2021/08/24 05:01:54;;;;;;;2.95;2.85;;;17.80;69.00;;;;;;5054798;28;20037;-85
2021/08/24 05:04:21;;;;;;;2.60;2.50;;;17.90;69.00;;;;;;5038735;28;20039;-84
2021/08/24 05:06:47;;;;;;;2.80;2.70;;;17.90;68.90;;;;;;5053479;28;20033;-85
2021/08/24 05:09:13;;;;;;;2.42;2.33;;;17.90;68.90;;;;;;5054175;28;20029;-85
2021/08/24 05:11:39;;;;;;;3.05;2.85;;;17.90;68.90;;;;;;5055855;28;20036;-84
2021/08/24 05:14:05;;;;;;;2.72;2.53;;;17.90;68.80;;;;;;5056315;28;20033;-84
2021/08/24 05:16:31;;;;;;;3.45;2.75;;;18.00;68.90;;;;;;5054602;28;20028;-84
2021/08/24 05:18:57;;;;;;;3.40;3.13;;;17.90;68.90;;;;;;5054858;28;20031;-84
2021/08/24 05:21:23;;;;;;;3.10;2.90;;;17.90;68.90;;;;;;5052509;28;20032;-85
2021/08/24 05:23:49;;;;;;;2.90;2.70;;;17.90;69.00;;;;;;5056802;28;20032;-84
2021/08/24 05:26:17;;;;;;;3.10;2.90;;;17.90;69.10;;;;;;5055323;28;20059;-84
2021/08/24 05:28:43;;;;;;;2.92;2.72;;;17.90;69.10;;;;;;5038396;28;20035;-84
2021/08/24 05:31:10;;;;;;;3.13;2.92;;;17.90;69.10;;;;;;5055429;28;20033;-84
2021/08/24 05:33:36;;;;;;;2.63;2.53;;;17.90;69.00;;;;;;5033831;28;20521;-84
2021/08/24 05:36:02;;;;;;;3.25;3.05;;;18.00;69.10;;;;;;5056424;28;20068;-84
2021/08/24 05:38:29;;;;;;;3.58;3.28;;;17.90;69.20;;;;;;5055736;28;20037;-86
2021/08/24 05:40:55;;;;;;;3.00;2.80;;;17.90;69.20;;;;;;5056038;28;20469;-84
2021/08/24 05:43:22;;;;;;;3.13;2.92;;;17.90;69.20;;;;;;5038073;28;20049;-84
2021/08/24 05:46:10;;;;;;;3.08;2.78;;;17.90;69.30;;;;;;5052929;28;20044;-84
2021/08/24 05:48:36;;;;;;;4.97;3.33;;;18.00;69.30;;;;;;5001996;28;20037;-86
2021/08/24 05:51:08;;;;;;;3.10;2.90;;;18.00;69.20;;;;;;5057108;28;20029;-84
2021/08/24 05:53:34;;;;;;;2.83;2.63;;;18.00;69.20;;;;;;5056180;28;20032;-85
2021/08/24 05:56:00;;;;;;;4.28;3.15;;;18.00;69.10;;;;;;5055679;28;20379;-84
2021/08/24 05:58:26;;;;;;;2.50;2.40;;;18.00;69.10;;;;;;5055548;28;20025;-84
2021/08/24 06:00:52;;;;;;;2.63;2.42;;;18.00;69.10;;;;;;5052962;28;20044;-84
2021/08/24 06:03:22;;;;;;;2.63;2.53;;;18.00;69.10;;;;;;5052101;28;20032;-89
2021/08/24 06:05:48;;;;;;;2.83;2.63;;;18.00;69.30;;;;;;5054819;28;20060;-84
2021/08/24 06:08:14;;;;;;;3.35;3.15;;;18.00;69.30;;;;;;5055178;28;20044;-85
2021/08/24 06:10:40;;;;;;;2.83;2.72;;;18.00;69.40;;;;;;5036354;28;20048;-85
2021/08/24 06:13:07;;;;;;;2.88;2.70;;;18.00;69.40;;;;;;5054673;28;20035;-84
2021/08/24 06:15:34;;;;;;;2.90;2.80;;;18.00;69.40;;;;;;5034612;28;20052;-84
2021/08/24 06:18:00;;;;;;;3.40;3.20;;;18.00;69.40;;;;;;5055505;28;20025;-84
2021/08/24 06:20:27;;;;;;;3.85;3.20;;;18.00;69.50;;;;;;5037331;28;20036;-84
2021/08/24 06:22:53;;;;;;;3.40;3.20;;;17.90;69.60;;;;;;5055258;28;20028;-84
2021/08/24 06:25:19;;;;;;;3.03;2.92;;;17.90;69.60;;;;;;5055218;28;20036;-85
2021/08/24 06:27:45;;;;;;;2.65;2.55;;;18.00;69.80;;;;;;5050686;28;20033;-83
2021/08/24 06:30:12;;;;;;;2.88;2.78;;;17.90;69.70;;;;;;5053882;28;20477;-85
2021/08/24 06:32:42;;;;;;;3.25;3.05;;;18.00;69.80;;;;;;5055738;28;20025;-86
2021/08/24 06:35:08;;;;;;;3.05;2.95;;;18.00;69.70;;;;;;5037201;28;20425;-86
2021/08/24 06:37:34;;;;;;;2.80;2.70;;;18.00;69.70;;;;;;5053640;28;20040;-84
2021/08/24 06:40:00;;;;;;;2.60;2.50;;;18.00;69.70;;;;;;5054045;28;20032;-84
2021/08/24 06:42:26;;;;;;;3.95;3.67;;;18.00;69.80;;;;;;5050796;28;20060;-85
2021/08/24 06:44:53;;;;;;;29.30;3.60;;;18.00;69.80;;;;;;5088134;28;20025;-84
2021/08/24 06:47:19;;;;;;;2.92;2.83;;;18.00;70.00;;;;;;5037601;28;20406;-86
2021/08/24 06:49:45;;;;;;;4.22;3.92;;;18.00;70.00;;;;;;5053545;28;20033;-84
2021/08/24 06:52:11;;;;;;;3.30;3.10;;;18.00;70.30;;;;;;5053586;28;20492;-84
2021/08/24 06:54:37;;;;;;;2.80;2.70;;;18.00;70.40;;;;;;5050562;28;20030;-84
2021/08/24 06:57:04;;;;;;;2.58;2.47;;;18.00;70.40;;;;;;5056499;28;20033;-84
2021/08/24 06:59:32;;;;;;;3.38;3.15;;;18.00;70.40;;;;;;5052798;28;20037;-85
2021/08/24 07:01:58;;;;;;;3.72;3.42;;;18.00;70.50;;;;;;5037852;28;20041;-84
2021/08/24 07:04:24;;;;;;;2.80;2.70;;;18.10;70.50;;;;;;5054798;28;20377;-83
2021/08/24 07:06:51;;;;;;;3.28;2.97;;;18.10;70.50;;;;;;5051083;28;20037;-85
2021/08/24 07:09:17;;;;;;;3.28;3.08;;;18.10;70.40;;;;;;5052898;28;20064;-85
2021/08/24 07:11:43;;;;;;;3.00;2.83;;;18.20;70.30;;;;;;5056344;28;20028;-84
2021/08/24 07:14:10;;;;;;;3.40;3.20;;;18.20;70.20;;;;;;5053342;28;20044;-85
2021/08/24 07:16:43;;;;;;;4.15;3.85;;;18.30;70.30;;;;;;5053876;28;20045;-85
2021/08/24 07:19:09;;;;;;;3.38;3.17;;;18.30;70.30;;;;;;5037099;28;20035;-86
2021/08/24 07:21:36;;;;;;;3.63;3.25;;;18.30;70.30;;;;;;5048899;28;20395;-84
2021/08/24 07:24:02;;;;;;;3.60;2.80;;;18.30;70.30;;;;;;5057467;28;20029;-84
2021/08/24 07:26:28;;;;;;;3.65;3.40;;;18.30;70.30;;;;;;5058521;28;20032;-84
2021/08/24 07:28:54;;;;;;;3.15;2.95;;;18.40;70.30;;;;;;5058178;28;20033;-87
2021/08/24 07:31:20;;;;;;;3.83;3.38;;;18.40;70.30;;;;;;5057480;28;20028;-86
2021/08/24 07:33:46;;;;;;;3.35;3.15;;;18.40;70.30;;;;;;5054203;28;20409;-84
2021/08/24 07:36:13;;;;;;;3.83;3.00;;;18.40;70.30;;;;;;5056173;28;20017;-85
2021/08/24 07:38:39;;;;;;;3.65;3.38;;;18.50;70.30;;;;;;5091542;28;20033;-86
2021/08/24 07:41:05;;;;;;;3.15;2.85;;;18.50;70.40;;;;;;5057887;28;20037;-85
2021/08/24 07:43:31;;;;;;;3.33;3.13;;;18.60;70.40;;;;;;5056678;28;20040;-87
2021/08/24 07:45:57;;;;;;;3.45;3.25;;;18.50;70.40;;;;;;5053455;28;20384;-85
2021/08/24 07:48:24;;;;;;;3.25;3.10;;;18.60;70.60;;;;;;5053926;28;20397;-84
2021/08/24 07:50:51;;;;;;;14.23;3.85;;;18.60;70.50;;;;;;5073684;28;20041;-86
2021/08/24 07:53:19;;;;;;;3.85;3.58;;;18.60;70.50;;;;;;5057743;28;20029;-85
2021/08/24 07:55:45;;;;;;;5.13;2.88;;;18.60;70.40;;;;;;5056495;28;20386;-83
2021/08/24 07:58:12;;;;;;;3.25;2.97;;;18.70;70.40;;;;;;5056944;28;20043;-84
2021/08/24 08:00:38;;;;;;;4.00;3.80;;;18.80;70.30;;;;;;5051334;28;20033;-84
2021/08/24 08:03:04;;;;;;;4.03;3.33;;;18.90;70.10;;;;;;5041404;28;20041;-83
2021/08/24 08:05:30;;;;;;;4.45;4.22;;;19.00;70.30;;;;;;5056527;28;20036;-86
2021/08/24 08:07:57;;;;;;;4.07;3.88;;;19.00;70.20;;;;;;5039785;28;20036;-85
2021/08/24 08:10:23;;;;;;;4.07;3.67;;;19.10;70.10;;;;;;5039638;28;20047;-85
2021/08/24 08:12:49;;;;;;;4.70;4.50;;;19.20;70.10;;;;;;5038849;28;20040;-86
2021/08/24 08:15:15;;;;;;;4.72;4.30;;;19.30;70.00;;;;;;5055335;28;20379;-85
2021/08/24 08:17:41;;;;;;;4.55;4.30;;;19.30;69.90;;;;;;5059273;28;20037;-85
2021/08/24 08:20:08;;;;;;;5.57;4.65;;;19.40;69.70;;;;;;5057133;28;20021;-84
2021/08/24 08:22:35;;;;;;;6.95;6.57;;;19.40;69.50;;;;;;5057865;28;20025;-85
2021/08/24 08:25:01;;;;;;;6.40;5.78;;;19.40;69.70;;;;;;5057788;28;20021;-84
2021/08/24 08:27:27;;;;;;;9.43;8.85;;;19.40;69.80;;;;;;5056247;28;20045;-85
2021/08/24 08:29:53;;;;;;;7.82;7.45;;;19.40;70.00;;;;;;5058719;28;20037;-84
2021/08/24 08:32:29;;;;;;;4.40;4.20;;;19.30;70.20;;;;;;5038907;28;20044;-85
2021/08/24 08:34:55;;;;;;;5.78;5.47;;;19.30;70.40;;;;;;5023975;28;20052;-83
2021/08/24 08:37:22;;;;;;;3.92;3.67;;;19.30;70.40;;;;;;5055940;28;20378;-85
2021/08/24 08:39:48;;;;;;;4.65;4.35;;;19.30;70.40;;;;;;5052783;28;20038;-85
2021/08/24 08:42:40;;;;;;;4.15;3.95;;;19.30;70.30;;;;;;5037732;28;20028;-84
2021/08/24 08:45:14;;;;;;;4.60;4.30;;;19.30;70.20;;;;;;5061969;28;20394;-84
2021/08/24 08:48:16;;;;;;;5.00;4.70;;;19.40;70.20;;;;;;5056869;28;20466;-85
2021/08/24 08:50:49;;;;;;;4.28;3.97;;;19.40;70.90;;;;;;5052602;28;20052;-84
2021/08/24 08:53:43;;;;;;;5.00;4.60;;;19.40;70.10;;;;;;5055561;28;20041;-85
2021/08/24 08:56:13;;;;;;;6.10;5.80;;;19.40;70.30;;;;;;5055672;28;20029;-85
2021/08/24 08:59:04;;;;;;;5.93;5.63;;;19.40;70.10;;;;;;5055039;28;20036;-87
2021/08/24 09:02:04;;;;;;;3.92;3.72;;;19.40;70.10;;;;;;5024920;28;20108;-84
2021/08/24 09:04:34;;;;;;;6.47;6.07;;;19.40;70.10;;;;;;5048652;28;20481;-85
2021/08/24 09:07:01;;;;;;;4.15;3.95;;;19.50;70.10;;;;;;5050598;28;20036;-84
2021/08/24 09:09:27;;;;;;;5.75;5.45;;;19.50;69.90;;;;;;5051602;28;20040;-85
2021/08/24 09:11:53;;;;;;;6.88;6.47;;;19.60;69.90;;;;;;5056850;28;20051;-85
2021/08/24 09:14:20;;;;;;;7.93;7.53;;;19.60;69.80;;;;;;5054127;28;20482;-88
2021/08/24 09:16:56;;;;;;;6.03;5.72;;;19.70;69.80;;;;;;5054690;28;20041;-85
2021/08/24 09:19:45;;;;;;;7.20;6.80;;;19.80;69.70;;;;;;5037707;28;20025;-85
2021/08/24 09:22:14;;;;;;;7.50;6.40;;;19.80;69.70;;;;;;5054939;28;20041;-85
2021/08/24 09:24:40;;;;;;;6.47;6.18;;;19.80;69.50;;;;;;5034885;28;20029;-86
2021/08/24 09:27:46;;;;;;;6.22;5.90;;;19.90;69.40;;;;;;5056579;28;20029;-83
2021/08/24 09:30:12;;;;;;;7.60;5.93;;;20.00;69.30;;;;;;5064196;28;20036;-84
2021/08/24 09:32:38;;;;;;;6.40;6.03;;;20.00;69.10;;;;;;5070337;28;20040;-86
2021/08/24 09:35:10;;;;;;;5.10;4.80;;;20.10;68.90;;;;;;5054311;28;20044;-84
2021/08/24 09:37:38;;;;;;;6.53;6.03;;;20.20;68.70;;;;;;5055801;28;20044;-85
2021/08/24 09:40:06;;;;;;;7.25;4.22;;;20.30;68.70;;;;;;5037897;28;20047;-85
2021/08/24 09:42:37;;;;;;;3.55;3.35;;;20.40;68.60;;;;;;5033137;28;20033;-85
2021/08/24 09:45:28;;;;;;;4.20;4.00;;;20.40;68.40;;;;;;5063966;28;20052;-84
2021/08/24 09:48:00;;;;;;;3.10;3.00;;;20.50;68.40;;;;;;5039888;28;20032;-85
2021/08/24 09:50:42;;;;;;;3.95;3.63;;;20.60;68.10;;;;;;5055338;28;20412;-86
2021/08/24 09:53:24;;;;;;;2.53;2.42;;;20.70;68.00;;;;;;5038318;28;20033;-85
2021/08/24 09:55:50;;;;;;;3.88;3.58;;;20.70;67.90;;;;;;5054186;28;20040;-85
2021/08/24 09:58:37;;;;;;;3.03;2.92;;;20.80;67.70;;;;;;5036471;28;20024;-84
2021/08/24 10:01:05;;;;;;;3.53;3.33;;;20.90;67.50;;;;;;5022072;28;20033;-85
2021/08/24 10:03:31;;;;;;;3.85;3.55;;;21.10;67.30;;;;;;5050008;28;20033;-84
2021/08/24 10:06:05;;;;;;;3.33;3.13;;;21.20;67.10;;;;;;5057289;28;20025;-85
2021/08/24 10:08:34;;;;;;;3.40;3.22;;;21.30;67.00;;;;;;5055837;28;20524;-85
2021/08/24 10:11:21;;;;;;;4.82;4.60;;;21.30;66.80;;;;;;5053583;28;20044;-85
2021/08/24 10:13:47;;;;;;;3.95;3.72;;;21.40;67.50;;;;;;5039051;28;20374;-85
2021/08/24 10:16:29;;;;;;;3.58;3.42;;;21.40;66.60;;;;;;5053521;28;20032;-85
2021/08/24 10:19:19;;;;;;;3.83;3.53;;;21.40;66.60;;;;;;5021062;28;20067;-84
2021/08/24 10:22:12;;;;;;;3.63;3.42;;;21.40;66.60;;;;;;5028314;28;20048;-85
2021/08/24 10:24:57;;;;;;;3.95;3.65;;;21.50;66.50;;;;;;5034308;28;20021;-84
2021/08/24 10:27:28;;;;;;;4.10;3.90;;;21.60;66.40;;;;;;5050902;28;20067;-86
2021/08/24 10:30:06;;;;;;;6.30;6.00;;;21.60;66.20;;;;;;5056797;28;20045;-84
2021/08/24 10:32:54;;;;;;;5.20;4.95;;;21.70;66.10;;;;;;5039862;28;20044;-85
2021/08/24 10:35:25;;;;;;;5.85;5.55;;;21.70;65.90;;;;;;5053686;28;20064;-85
2021/08/24 10:37:52;;;;;;;6.18;5.72;;;21.80;65.80;;;;;;5035770;28;20040;-85
2021/08/24 10:40:29;;;;;;;5.43;5.15;;;21.90;66.40;;;;;;5038344;28;20024;-85
2021/08/24 10:43:22;;;;;;;5.68;5.28;;;22.00;65.50;;;;;;5066332;28;20025;-83
2021/08/24 10:46:04;;;;;;;6.32;5.95;;;22.00;65.20;;;;;;5036699;28;20430;-85
2021/08/24 10:48:32;;;;;;;6.20;5.68;;;22.10;65.10;;;;;;5049473;28;20363;-86
2021/08/24 10:51:17;;;;;;;8.02;4.65;;;22.30;64.80;;;;;;5056941;28;20053;-85
2021/08/24 10:54:02;;;;;;;3.97;3.75;;;22.30;64.50;;;;;;5054944;28;20032;-85
2021/08/24 10:56:57;;;;;;;4.57;4.38;;;22.40;64.20;;;;;;5053566;28;20059;-85
2021/08/24 10:59:38;;;;;;;3.80;3.60;;;22.40;64.20;;;;;;5057321;28;20041;-85
2021/08/24 11:02:04;;;;;;;4.38;4.18;;;22.40;63.90;;;;;;5026093;28;20040;-86
2021/08/24 11:04:58;;;;;;;4.60;4.30;;;22.50;63.90;;;;;;5058772;28;20025;-85
2021/08/24 11:07:51;;;;;;;5.13;4.72;;;22.50;63.50;;;;;;5057216;28;20461;-85
2021/08/24 11:10:35;;;;;;;4.80;4.60;;;22.60;63.20;;;;;;5058663;28;20036;-86
2021/08/24 11:13:20;;;;;;;4.88;4.65;;;22.70;62.90;;;;;;5057773;28;20384;-85
2021/08/24 11:16:03;;;;;;;5.10;4.80;;;22.80;62.60;;;;;;5039405;28;20033;-85
2021/08/24 11:18:49;;;;;;;5.20;4.90;;;22.90;62.00;;;;;;5053739;28;20021;-85
2021/08/24 11:21:22;;;;;;;5.75;5.45;;;22.90;61.80;;;;;;5068402;28;20036;-84
2021/08/24 11:24:09;;;;;;;4.70;4.40;;;22.90;61.50;;;;;;5090329;28;20044;-85
2021/08/24 11:26:40;;;;;;;4.97;4.78;;;23.00;61.40;;;;;;5058054;28;20320;-85
2021/08/24 11:29:12;;;;;;;4.68;4.47;;;23.20;61.00;;;;;;5057055;28;20017;-85
2021/08/24 11:31:46;;;;;;;5.78;5.28;;;23.40;60.60;;;;;;5057646;28;20041;-85
2021/08/24 11:34:24;;;;;;;5.85;5.55;;;23.60;60.20;;;;;;5057050;28;20037;-85
2021/08/24 11:37:04;;;;;;;5.88;5.57;;;23.80;59.70;;;;;;5038783;28;20029;-85
2021/08/24 11:39:43;;;;;;;5.40;5.10;;;23.80;59.60;;;;;;5037471;28;20026;-85
2021/08/24 11:42:09;;;;;;;5.45;5.25;;;23.80;59.40;;;;;;5083198;28;20036;-84
2021/08/24 11:44:43;;;;;;;5.40;5.10;;;23.80;59.10;;;;;;5057629;28;20017;-86
2021/08/24 11:47:13;;;;;;;5.50;5.22;;;23.90;59.20;;;;;;5055396;28;20037;-85
2021/08/24 11:49:53;;;;;;;6.93;6.53;;;24.10;59.00;;;;;;5056630;28;20033;-85
2021/08/24 11:52:33;;;;;;;7.00;6.63;;;24.30;58.60;;;;;;5056324;28;20059;-86
2021/08/24 11:55:04;;;;;;;7.15;6.75;;;24.40;58.20;;;;;;5056518;28;20453;-85
2021/08/24 11:57:41;;;;;;;7.65;7.05;;;24.60;57.90;;;;;;5051828;28;20033;-85
2021/08/24 12:00:08;;;;;;;6.93;6.63;;;24.70;57.70;;;;;;5066108;28;20020;-85
2021/08/24 12:02:38;;;;;;;6.97;6.65;;;24.90;57.30;;;;;;5055905;28;20037;-85
2021/08/24 12:05:05;;;;;;;7.30;7.00;;;25.00;57.00;;;;;;5040434;28;20029;-85
2021/08/24 12:07:36;;;;;;;7.78;7.38;;;25.10;56.70;;;;;;5038015;28;20037;-86
2021/08/24 12:10:32;;;;;;;9.45;7.75;;;25.10;56.70;;;;;;5038485;28;20036;-86
2021/08/24 12:12:59;;;;;;;7.25;6.90;;;25.10;56.60;;;;;;5042756;28;20036;-86
2021/08/24 12:15:32;;;;;;;9.32;8.90;;;25.10;56.50;;;;;;5052363;28;20044;-85
2021/08/24 12:18:05;;;;;;;8.23;7.82;;;25.20;56.50;;;;;;5041886;28;20036;-85
2021/08/24 12:20:34;;;;;;;7.60;7.10;;;25.30;55.80;;;;;;5056350;28;20044;-85
2021/08/24 12:23:01;;;;;;;7.07;6.63;;;25.10;55.80;;;;;;5056265;28;20037;-86
2021/08/24 12:25:36;;;;;;;6.72;6.43;;;25.10;56.00;;;;;;5039551;28;20025;-86
2021/08/24 12:28:05;;;;;;;7.75;7.35;;;25.10;55.80;;;;;;5055414;28;20025;-85
2021/08/24 12:30:37;;;;;;;6.50;6.20;;;25.20;55.30;;;;;;5052440;28;20049;-86
2021/08/24 12:33:09;;;;;;;7.00;6.60;;;25.40;55.20;;;;;;5065364;28;20029;-86
2021/08/24 12:35:40;;;;;;;7.55;7.25;;;25.40;54.90;;;;;;5057186;28;20040;-82
2021/08/24 12:38:07;;;;;;;;;;;25.40;54.80;;;;;;5040314;28;20033;-85
2021/08/24 12:40:37;;;;;;;5.97;5.68;;;25.30;54.60;;;;;;5055392;28;19915;-85
2021/08/24 12:43:12;;;;;;;6.93;6.32;;;25.30;54.80;;;;;;5056578;28;20071;-86
2021/08/24 12:45:39;;;;;;;9.02;8.63;;;25.30;54.80;;;;;;5037280;28;20037;-86
2021/08/24 12:48:16;;;;;;;6.20;5.90;;;25.50;54.50;;;;;;5056449;28;20033;-85
2021/08/24 12:51:06;;;;;;;6.40;6.10;;;25.50;53.90;;;;;;5057025;28;20033;-85
2021/08/24 12:53:48;;;;;;;6.28;5.97;;;25.40;54.00;;;;;;5055676;28;20021;-86
2021/08/24 12:56:35;;;;;;;6.32;5.93;;;25.30;53.80;;;;;;5023956;28;20052;-86
2021/08/24 12:59:02;;;;;;;6.80;6.35;;;25.30;54.00;;;;;;5037821;28;20025;-86
2021/08/24 13:01:28;;;;;;;16.45;15.63;;;25.20;53.90;;;;;;5038384;28;20036;-86
2021/08/24 13:04:12;;;;;;;5.95;5.65;;;25.30;53.90;;;;;;5054783;28;20495;-86
2021/08/24 13:07:17;;;;;;;6.32;6.03;;;25.30;53.70;;;;;;5037656;28;20040;-85
2021/08/24 13:09:44;;;;;;;5.97;5.68;;;25.30;53.50;;;;;;5036273;28;20045;-86